sensor_id;sensor_type;location;lat;lon;timestamp;temperature;humidity
52323;DHT22;38263;52.920;6.238;2022-09-03T00:04:36;17.80;99.90
52323;DHT22;38263;52.920;6.238;2022-09-03T00:07:10;17.90;99.90
52323;DHT22;38263;52.920;6.238;2022-09-03T00:09:45;17.90;99.90
52323;DHT22;38263;52.920;6.238;2022-09-03T00:12:20;17.70;99.90
52323;DHT22;38263;52.920;6.238;2022-09-03T00:14:54;17.60;99.90
52323;DHT22;38263;52.920;6.238;2022-09-03T00:17:26;17.50;99.90
52323;DHT22;38263;52.920;6.238;2022-09-03T00:22:32;17.50;99.90
52323;DHT22;38263;52.920;6.238;2022-09-03T00:25:02;17.40;99.90
52323;DHT22;38263;52.920;6.238;2022-09-03T00:27:31;17.30;99.90
52323;DHT22;38263;52.920;6.238;2022-09-03T00:30:04;17.50;99.90
52323;DHT22;38263;52.920;6.238;2022-09-03T00:32:36;17.30;99.90
52323;DHT22;38263;52.920;6.238;2022-09-03T00:35:06;17.20;99.90
52323;DHT22;38263;52.920;6.238;2022-09-03T00:37:34;16.90;99.90
52323;DHT22;38263;52.920;6.238;2022-09-03T00:39:59;17.30;99.90
52323;DHT22;38263;52.920;6.238;2022-09-03T00:42:42;17.20;99.90
52323;DHT22;38263;52.920;6.238;2022-09-03T00:45:34;17.10;99.90
52323;DHT22;38263;52.920;6.238;2022-09-03T00:51:07;17.00;99.90
52323;DHT22;38263;52.920;6.238;2022-09-03T00:53:43;17.00;99.90
52323;DHT22;38263;52.920;6.238;2022-09-03T01:02:06;16.80;99.90
52323;DHT22;38263;52.920;6.238;2022-09-03T01:05:09;16.80;99.90
52323;DHT22;38263;52.920;6.238;2022-09-03T01:10:17;16.90;99.90
52323;DHT22;38263;52.920;6.238;2022-09-03T01:15:51;16.90;99.90
52323;DHT22;38263;52.920;6.238;2022-09-03T01:24:31;16.70;99.90
52323;DHT22;38263;52.920;6.238;2022-09-03T01:30:03;16.80;99.90
52323;DHT22;38263;52.920;6.238;2022-09-03T01:35:37;16.90;99.90
52323;DHT22;38263;52.920;6.238;2022-09-03T01:46:48;16.70;99.90
52323;DHT22;38263;52.920;6.238;2022-09-03T01:52:02;16.70;99.90
52323;DHT22;38263;52.920;6.238;2022-09-03T01:55:05;16.90;99.90
52323;DHT22;38263;52.920;6.238;2022-09-03T01:57:42;16.70;99.90
52323;DHT22;38263;52.920;6.238;2022-09-03T02:00:15;16.60;99.90
52323;DHT22;38263;52.920;6.238;2022-09-03T02:02:46;16.60;99.90
52323;DHT22;38263;52.920;6.238;2022-09-03T02:05:26;16.90;99.90
52323;DHT22;38263;52.920;6.238;2022-09-03T02:07:57;16.70;99.90
52323;DHT22;38263;52.920;6.238;2022-09-03T02:10:30;16.70;99.90
52323;DHT22;38263;52.920;6.238;2022-09-03T02:13:01;16.90;99.90
52323;DHT22;38263;52.920;6.238;2022-09-03T02:15:29;16.70;99.90
52323;DHT22;38263;52.920;6.238;2022-09-03T02:18:00;16.60;99.90
52323;DHT22;38263;52.920;6.238;2022-09-03T02:20:27;16.70;99.90
52323;DHT22;38263;52.920;6.238;2022-09-03T02:22:55;16.80;99.90
52323;DHT22;38263;52.920;6.238;2022-09-03T02:25:26;16.70;99.90
52323;DHT22;38263;52.920;6.238;2022-09-03T02:27:54;16.80;99.90
52323;DHT22;38263;52.920;6.238;2022-09-03T02:30:19;16.60;99.90
52323;DHT22;38263;52.920;6.238;2022-09-03T02:32:45;16.70;99.90
52323;DHT22;38263;52.920;6.238;2022-09-03T02:35:11;16.70;99.90
52323;DHT22;38263;52.920;6.238;2022-09-03T02:37:37;16.70;99.90
52323;DHT22;38263;52.920;6.238;2022-09-03T02:40:03;16.70;99.90
52323;DHT22;38263;52.920;6.238;2022-09-03T02:42:34;16.70;99.90
52323;DHT22;38263;52.920;6.238;2022-09-03T02:45:19;16.70;99.90
52323;DHT22;38263;52.920;6.238;2022-09-03T02:47:50;16.70;99.90
52323;DHT22;38263;52.920;6.238;2022-09-03T02:50:16;16.90;99.90
52323;DHT22;38263;52.920;6.238;2022-09-03T02:52:41;16.60;99.90
52323;DHT22;38263;52.920;6.238;2022-09-03T02:55:07;16.50;99.90
52323;DHT22;38263;52.920;6.238;2022-09-03T02:57:33;16.50;99.90
52323;DHT22;38263;52.920;6.238;2022-09-03T02:59:58;16.60;99.90
52323;DHT22;38263;52.920;6.238;2022-09-03T03:02:24;16.40;99.90
52323;DHT22;38263;52.920;6.238;2022-09-03T03:04:49;16.70;99.90
52323;DHT22;38263;52.920;6.238;2022-09-03T03:07:15;16.60;99.90
52323;DHT22;38263;52.920;6.238;2022-09-03T03:09:41;16.50;99.90
52323;DHT22;38263;52.920;6.238;2022-09-03T03:12:06;16.60;99.90
52323;DHT22;38263;52.920;6.238;2022-09-03T03:14:34;16.60;99.90
52323;DHT22;38263;52.920;6.238;2022-09-03T03:17:00;16.40;99.90
52323;DHT22;38263;52.920;6.238;2022-09-03T03:19:25;16.40;99.90
52323;DHT22;38263;52.920;6.238;2022-09-03T03:21:51;16.60;99.90
52323;DHT22;38263;52.920;6.238;2022-09-03T03:24:16;16.70;99.90
52323;DHT22;38263;52.920;6.238;2022-09-03T03:26:42;16.70;99.90
52323;DHT22;38263;52.920;6.238;2022-09-03T03:29:13;16.60;99.90
52323;DHT22;38263;52.920;6.238;2022-09-03T03:31:39;16.50;99.90
52323;DHT22;38263;52.920;6.238;2022-09-03T03:34:05;16.50;99.90
52323;DHT22;38263;52.920;6.238;2022-09-03T03:36:32;16.40;99.90
52323;DHT22;38263;52.920;6.238;2022-09-03T03:38:59;16.50;99.90
52323;DHT22;38263;52.920;6.238;2022-09-03T03:41:30;16.50;99.90
52323;DHT22;38263;52.920;6.238;2022-09-03T03:43:58;16.50;99.90
52323;DHT22;38263;52.920;6.238;2022-09-03T03:46:27;16.40;99.90
52323;DHT22;38263;52.920;6.238;2022-09-03T03:48:53;16.60;99.90
52323;DHT22;38263;52.920;6.238;2022-09-03T03:51:19;16.70;99.90
52323;DHT22;38263;52.920;6.238;2022-09-03T03:53:45;16.70;99.90
52323;DHT22;38263;52.920;6.238;2022-09-03T03:56:13;16.60;99.90
52323;DHT22;38263;52.920;6.238;2022-09-03T03:58:40;16.60;99.90
52323;DHT22;38263;52.920;6.238;2022-09-03T04:01:17;16.70;99.90
52323;DHT22;38263;52.920;6.238;2022-09-03T04:03:43;16.60;99.90
52323;DHT22;38263;52.920;6.238;2022-09-03T04:06:12;16.50;99.90
52323;DHT22;38263;52.920;6.238;2022-09-03T04:08:39;16.50;99.90
52323;DHT22;38263;52.920;6.238;2022-09-03T04:11:07;16.60;99.90
52323;DHT22;38263;52.920;6.238;2022-09-03T04:13:39;16.40;99.90
52323;DHT22;38263;52.920;6.238;2022-09-03T04:16:19;16.50;99.90
52323;DHT22;38263;52.920;6.238;2022-09-03T04:21:16;16.40;99.90
52323;DHT22;38263;52.920;6.238;2022-09-03T04:23:44;16.60;99.90
52323;DHT22;38263;52.920;6.238;2022-09-03T04:26:13;16.30;99.90
52323;DHT22;38263;52.920;6.238;2022-09-03T04:28:39;16.40;99.90
52323;DHT22;38263;52.920;6.238;2022-09-03T04:31:08;16.40;99.90
52323;DHT22;38263;52.920;6.238;2022-09-03T04:33:35;16.30;99.90
52323;DHT22;38263;52.920;6.238;2022-09-03T04:38:38;16.20;99.90
52323;DHT22;38263;52.920;6.238;2022-09-03T04:41:05;16.30;99.90
52323;DHT22;38263;52.920;6.238;2022-09-03T04:43:31;16.20;99.90
52323;DHT22;38263;52.920;6.238;2022-09-03T04:45:58;16.00;99.90
52323;DHT22;38263;52.920;6.238;2022-09-03T04:48:24;16.20;99.90
52323;DHT22;38263;52.920;6.238;2022-09-03T04:50:50;16.00;99.90
52323;DHT22;38263;52.920;6.238;2022-09-03T04:53:16;15.90;99.90
52323;DHT22;38263;52.920;6.238;2022-09-03T04:55:41;16.00;99.90
52323;DHT22;38263;52.920;6.238;2022-09-03T04:58:07;16.10;99.90
52323;DHT22;38263;52.920;6.238;2022-09-03T05:00:34;16.00;99.90
52323;DHT22;38263;52.920;6.238;2022-09-03T05:03:00;15.90;99.90
52323;DHT22;38263;52.920;6.238;2022-09-03T05:05:25;16.20;99.90
52323;DHT22;38263;52.920;6.238;2022-09-03T05:07:51;16.00;99.90
52323;DHT22;38263;52.920;6.238;2022-09-03T05:10:17;15.90;99.90
52323;DHT22;38263;52.920;6.238;2022-09-03T05:12:47;16.00;99.90
52323;DHT22;38263;52.920;6.238;2022-09-03T05:15:14;16.00;99.90
52323;DHT22;38263;52.920;6.238;2022-09-03T05:17:40;15.90;99.90
52323;DHT22;38263;52.920;6.238;2022-09-03T05:20:06;15.90;99.90
52323;DHT22;38263;52.920;6.238;2022-09-03T05:22:33;16.00;99.90
52323;DHT22;38263;52.920;6.238;2022-09-03T05:24:59;16.00;99.90
52323;DHT22;38263;52.920;6.238;2022-09-03T05:27:24;15.80;99.90
52323;DHT22;38263;52.920;6.238;2022-09-03T05:29:50;15.80;99.90
52323;DHT22;38263;52.920;6.238;2022-09-03T05:32:15;15.80;99.90
52323;DHT22;38263;52.920;6.238;2022-09-03T05:34:42;15.70;99.90
52323;DHT22;38263;52.920;6.238;2022-09-03T05:37:08;16.00;99.90
52323;DHT22;38263;52.920;6.238;2022-09-03T05:39:33;16.00;99.90
52323;DHT22;38263;52.920;6.238;2022-09-03T05:41:59;15.90;99.90
52323;DHT22;38263;52.920;6.238;2022-09-03T05:44:24;15.90;99.90
52323;DHT22;38263;52.920;6.238;2022-09-03T05:46:50;16.00;99.90
52323;DHT22;38263;52.920;6.238;2022-09-03T05:49:16;15.90;99.90
52323;DHT22;38263;52.920;6.238;2022-09-03T05:51:42;15.80;99.90
52323;DHT22;38263;52.920;6.238;2022-09-03T05:54:09;15.80;99.90
52323;DHT22;38263;52.920;6.238;2022-09-03T05:56:36;16.00;99.90
52323;DHT22;38263;52.920;6.238;2022-09-03T05:59:05;16.10;99.90
52323;DHT22;38263;52.920;6.238;2022-09-03T06:01:35;16.00;99.90
52323;DHT22;38263;52.920;6.238;2022-09-03T06:04:06;16.10;99.90
52323;DHT22;38263;52.920;6.238;2022-09-03T06:06:35;16.20;99.90
52323;DHT22;38263;52.920;6.238;2022-09-03T06:09:03;16.10;99.90
52323;DHT22;38263;52.920;6.238;2022-09-03T06:11:30;16.10;99.90
52323;DHT22;38263;52.920;6.238;2022-09-03T06:13:58;16.00;99.90
52323;DHT22;38263;52.920;6.238;2022-09-03T06:16:28;16.20;99.90
52323;DHT22;38263;52.920;6.238;2022-09-03T06:18:54;16.20;99.90
52323;DHT22;38263;52.920;6.238;2022-09-03T06:21:20;16.30;99.90
52323;DHT22;38263;52.920;6.238;2022-09-03T06:23:50;16.40;99.90
52323;DHT22;38263;52.920;6.238;2022-09-03T06:26:17;16.40;99.90
52323;DHT22;38263;52.920;6.238;2022-09-03T06:28:43;16.50;99.90
52323;DHT22;38263;52.920;6.238;2022-09-03T06:31:11;16.60;99.90
52323;DHT22;38263;52.920;6.238;2022-09-03T06:33:38;16.70;99.90
52323;DHT22;38263;52.920;6.238;2022-09-03T06:36:06;16.80;99.90
52323;DHT22;38263;52.920;6.238;2022-09-03T06:38:33;17.00;99.90
52323;DHT22;38263;52.920;6.238;2022-09-03T06:41:16;17.10;99.90
52323;DHT22;38263;52.920;6.238;2022-09-03T06:43:46;17.20;99.90
52323;DHT22;38263;52.920;6.238;2022-09-03T06:46:17;17.50;99.90
52323;DHT22;38263;52.920;6.238;2022-09-03T06:48:44;17.60;99.90
52323;DHT22;38263;52.920;6.238;2022-09-03T06:51:18;17.50;99.90
52323;DHT22;38263;52.920;6.238;2022-09-03T06:53:46;17.40;99.90
52323;DHT22;38263;52.920;6.238;2022-09-03T06:56:15;17.70;99.90
52323;DHT22;38263;52.920;6.238;2022-09-03T06:58:50;17.70;99.90
52323;DHT22;38263;52.920;6.238;2022-09-03T07:01:22;17.80;99.90
52323;DHT22;38263;52.920;6.238;2022-09-03T07:03:53;17.60;99.90
52323;DHT22;38263;52.920;6.238;2022-09-03T07:06:24;17.90;99.90
52323;DHT22;38263;52.920;6.238;2022-09-03T07:08:50;18.00;99.90
52323;DHT22;38263;52.920;6.238;2022-09-03T07:11:18;18.00;99.90
52323;DHT22;38263;52.920;6.238;2022-09-03T07:13:46;17.90;99.90
52323;DHT22;38263;52.920;6.238;2022-09-03T07:16:13;18.20;99.90
52323;DHT22;38263;52.920;6.238;2022-09-03T07:18:39;18.30;99.90
52323;DHT22;38263;52.920;6.238;2022-09-03T07:21:11;18.60;99.90
52323;DHT22;38263;52.920;6.238;2022-09-03T07:23:37;18.40;99.90
52323;DHT22;38263;52.920;6.238;2022-09-03T07:26:06;18.40;99.90
52323;DHT22;38263;52.920;6.238;2022-09-03T07:28:35;18.30;99.90
52323;DHT22;38263;52.920;6.238;2022-09-03T07:31:07;18.50;99.90
52323;DHT22;38263;52.920;6.238;2022-09-03T07:33:33;18.50;99.90
52323;DHT22;38263;52.920;6.238;2022-09-03T07:36:08;18.20;99.90
52323;DHT22;38263;52.920;6.238;2022-09-03T07:38:35;18.80;99.90
52323;DHT22;38263;52.920;6.238;2022-09-03T07:41:03;18.60;99.90
52323;DHT22;38263;52.920;6.238;2022-09-03T07:43:33;18.70;99.90
52323;DHT22;38263;52.920;6.238;2022-09-03T07:46:00;18.60;99.90
52323;DHT22;38263;52.920;6.238;2022-09-03T07:48:26;18.80;99.90
52323;DHT22;38263;52.920;6.238;2022-09-03T07:50:51;18.80;99.90
52323;DHT22;38263;52.920;6.238;2022-09-03T07:53:18;18.90;99.90
52323;DHT22;38263;52.920;6.238;2022-09-03T07:55:47;18.90;99.90
52323;DHT22;38263;52.920;6.238;2022-09-03T07:58:13;18.90;99.90
52323;DHT22;38263;52.920;6.238;2022-09-03T08:00:39;18.90;99.90
52323;DHT22;38263;52.920;6.238;2022-09-03T08:03:05;19.00;99.90
52323;DHT22;38263;52.920;6.238;2022-09-03T08:05:34;19.00;99.90
52323;DHT22;38263;52.920;6.238;2022-09-03T08:08:02;19.00;99.90
52323;DHT22;38263;52.920;6.238;2022-09-03T08:10:27;19.30;99.90
52323;DHT22;38263;52.920;6.238;2022-09-03T08:12:56;19.30;99.90
52323;DHT22;38263;52.920;6.238;2022-09-03T08:15:22;19.30;99.90
52323;DHT22;38263;52.920;6.238;2022-09-03T08:17:48;19.50;99.90
52323;DHT22;38263;52.920;6.238;2022-09-03T08:20:14;19.30;99.90
52323;DHT22;38263;52.920;6.238;2022-09-03T08:22:40;19.60;99.90
52323;DHT22;38263;52.920;6.238;2022-09-03T08:25:06;19.50;99.90
52323;DHT22;38263;52.920;6.238;2022-09-03T08:27:32;19.50;99.90
52323;DHT22;38263;52.920;6.238;2022-09-03T08:29:57;19.70;99.90
52323;DHT22;38263;52.920;6.238;2022-09-03T08:32:23;19.50;99.90
52323;DHT22;38263;52.920;6.238;2022-09-03T08:34:48;19.70;99.90
52323;DHT22;38263;52.920;6.238;2022-09-03T08:37:16;19.80;99.90
52323;DHT22;38263;52.920;6.238;2022-09-03T08:39:43;20.00;99.90
52323;DHT22;38263;52.920;6.238;2022-09-03T08:45:07;20.10;99.90
52323;DHT22;38263;52.920;6.238;2022-09-03T08:47:42;20.00;99.90
52323;DHT22;38263;52.920;6.238;2022-09-03T08:50:21;20.10;99.90
52323;DHT22;38263;52.920;6.238;2022-09-03T08:52:55;20.30;99.90
52323;DHT22;38263;52.920;6.238;2022-09-03T08:58:27;20.50;99.90
52323;DHT22;38263;52.920;6.238;2022-09-03T09:03:59;20.70;99.90
52323;DHT22;38263;52.920;6.238;2022-09-03T09:06:58;20.70;99.90
52323;DHT22;38263;52.920;6.238;2022-09-03T09:09:57;20.90;99.90
52323;DHT22;38263;52.920;6.238;2022-09-03T09:18:26;21.30;99.90
52323;DHT22;38263;52.920;6.238;2022-09-03T09:21:32;21.30;99.90
52323;DHT22;38263;52.920;6.238;2022-09-03T09:24:01;21.60;99.90
52323;DHT22;38263;52.920;6.238;2022-09-03T09:26:28;21.80;99.90
52323;DHT22;38263;52.920;6.238;2022-09-03T09:29:04;22.20;99.90
52323;DHT22;38263;52.920;6.238;2022-09-03T09:31:31;22.10;99.90
52323;DHT22;38263;52.920;6.238;2022-09-03T09:34:07;22.20;99.90
52323;DHT22;38263;52.920;6.238;2022-09-03T09:36:50;23.60;99.90
52323;DHT22;38263;52.920;6.238;2022-09-03T09:39:16;22.70;99.90
52323;DHT22;38263;52.920;6.238;2022-09-03T09:41:42;22.90;99.90
52323;DHT22;38263;52.920;6.238;2022-09-03T09:44:18;22.70;99.90
52323;DHT22;38263;52.920;6.238;2022-09-03T09:46:45;22.90;99.90
52323;DHT22;38263;52.920;6.238;2022-09-03T09:49:33;23.10;99.90
52323;DHT22;38263;52.920;6.238;2022-09-03T09:52:14;23.10;99.90
52323;DHT22;38263;52.920;6.238;2022-09-03T09:54:42;23.40;99.90
52323;DHT22;38263;52.920;6.238;2022-09-03T09:57:15;23.60;99.90
52323;DHT22;38263;52.920;6.238;2022-09-03T09:59:44;23.70;99.90
52323;DHT22;38263;52.920;6.238;2022-09-03T10:02:13;23.70;99.90
52323;DHT22;38263;52.920;6.238;2022-09-03T10:04:40;23.70;99.90
52323;DHT22;38263;52.920;6.238;2022-09-03T10:07:27;23.80;99.90
52323;DHT22;38263;52.920;6.238;2022-09-03T10:10:12;23.80;99.90
52323;DHT22;38263;52.920;6.238;2022-09-03T10:12:59;23.90;99.90
52323;DHT22;38263;52.920;6.238;2022-09-03T10:18:18;23.90;99.90
52323;DHT22;38263;52.920;6.238;2022-09-03T10:21:05;23.70;99.60
52323;DHT22;38263;52.920;6.238;2022-09-03T10:24:00;24.10;99.90
52323;DHT22;38263;52.920;6.238;2022-09-03T10:26:29;23.80;99.00
52323;DHT22;38263;52.920;6.238;2022-09-03T10:28:58;23.70;99.80
52323;DHT22;38263;52.920;6.238;2022-09-03T10:31:58;24.00;99.80
52323;DHT22;38263;52.920;6.238;2022-09-03T10:37:33;23.70;99.40
52323;DHT22;38263;52.920;6.238;2022-09-03T10:45:49;23.90;99.20
52323;DHT22;38263;52.920;6.238;2022-09-03T10:48:32;23.90;99.10
52323;DHT22;38263;52.920;6.238;2022-09-03T10:51:25;23.80;99.30
52323;DHT22;38263;52.920;6.238;2022-09-03T10:54:00;23.80;98.60
52323;DHT22;38263;52.920;6.238;2022-09-03T10:56:53;23.90;98.50
52323;DHT22;38263;52.920;6.238;2022-09-03T10:59:56;23.90;98.00
52323;DHT22;38263;52.920;6.238;2022-09-03T11:02:50;24.10;98.10
52323;DHT22;38263;52.920;6.238;2022-09-03T11:05:31;24.00;97.60
52323;DHT22;38263;52.920;6.238;2022-09-03T11:08:09;24.10;97.30
52323;DHT22;38263;52.920;6.238;2022-09-03T11:10:44;24.30;98.50
52323;DHT22;38263;52.920;6.238;2022-09-03T11:13:21;24.10;97.90
52323;DHT22;38263;52.920;6.238;2022-09-03T11:16:02;24.10;97.70
52323;DHT22;38263;52.920;6.238;2022-09-03T11:18:36;24.20;98.20
52323;DHT22;38263;52.920;6.238;2022-09-03T11:21:08;24.50;97.80
52323;DHT22;38263;52.920;6.238;2022-09-03T11:23:44;24.30;97.40
52323;DHT22;38263;52.920;6.238;2022-09-03T11:26:14;24.20;97.00
52323;DHT22;38263;52.920;6.238;2022-09-03T11:34:05;24.40;96.60
52323;DHT22;38263;52.920;6.238;2022-09-03T11:36:34;24.30;97.10
52323;DHT22;38263;52.920;6.238;2022-09-03T11:39:00;24.20;97.60
52323;DHT22;38263;52.920;6.238;2022-09-03T11:41:36;24.40;97.00
52323;DHT22;38263;52.920;6.238;2022-09-03T11:44:18;24.40;96.30
52323;DHT22;38263;52.920;6.238;2022-09-03T11:46:54;24.60;96.30
52323;DHT22;38263;52.920;6.238;2022-09-03T11:49:31;24.40;96.90
52323;DHT22;38263;52.920;6.238;2022-09-03T11:52:04;24.40;96.40
52323;DHT22;38263;52.920;6.238;2022-09-03T11:54:43;24.50;95.80
52323;DHT22;38263;52.920;6.238;2022-09-03T11:57:13;24.40;96.10
52323;DHT22;38263;52.920;6.238;2022-09-03T11:59:42;24.70;96.10
52323;DHT22;38263;52.920;6.238;2022-09-03T12:13:17;24.40;95.60
52323;DHT22;38263;52.920;6.238;2022-09-03T12:16:02;24.60;96.30
52323;DHT22;38263;52.920;6.238;2022-09-03T12:18:33;24.70;95.60
52323;DHT22;38263;52.920;6.238;2022-09-03T12:21:05;24.70;96.00
52323;DHT22;38263;52.920;6.238;2022-09-03T12:26:21;24.80;95.20
52323;DHT22;38263;52.920;6.238;2022-09-03T12:28:56;24.60;95.40
52323;DHT22;38263;52.920;6.238;2022-09-03T12:31:23;24.60;95.90
52323;DHT22;38263;52.920;6.238;2022-09-03T12:36:24;26.50;96.40
52323;DHT22;38263;52.920;6.238;2022-09-03T12:38:50;24.60;95.30
52323;DHT22;38263;52.920;6.238;2022-09-03T12:41:28;24.80;95.80
52323;DHT22;38263;52.920;6.238;2022-09-03T12:43:57;24.80;95.90
52323;DHT22;38263;52.920;6.238;2022-09-03T12:46:31;24.90;95.40
52323;DHT22;38263;52.920;6.238;2022-09-03T12:48:59;24.90;95.20
52323;DHT22;38263;52.920;6.238;2022-09-03T12:51:38;24.80;95.40
52323;DHT22;38263;52.920;6.238;2022-09-03T12:54:10;25.00;95.70
52323;DHT22;38263;52.920;6.238;2022-09-03T12:56:42;24.70;95.30
52323;DHT22;38263;52.920;6.238;2022-09-03T12:59:13;24.70;95.60
52323;DHT22;38263;52.920;6.238;2022-09-03T13:01:50;24.90;95.60
52323;DHT22;38263;52.920;6.238;2022-09-03T13:04:25;25.10;95.00
52323;DHT22;38263;52.920;6.238;2022-09-03T13:06:55;25.10;95.20
52323;DHT22;38263;52.920;6.238;2022-09-03T13:09:26;25.10;94.50
52323;DHT22;38263;52.920;6.238;2022-09-03T13:11:54;25.00;95.20
52323;DHT22;38263;52.920;6.238;2022-09-03T13:14:20;24.90;95.10
52323;DHT22;38263;52.920;6.238;2022-09-03T13:19:59;25.10;94.50
52323;DHT22;38263;52.920;6.238;2022-09-03T13:25:54;24.60;94.90
52323;DHT22;38263;52.920;6.238;2022-09-03T13:33:46;25.10;94.40
52323;DHT22;38263;52.920;6.238;2022-09-03T13:36:20;25.70;95.40
52323;DHT22;38263;52.920;6.238;2022-09-03T13:41:45;25.00;95.30
52323;DHT22;38263;52.920;6.238;2022-09-03T13:44:44;25.40;94.50
52323;DHT22;38263;52.920;6.238;2022-09-03T13:47:34;25.30;94.60
52323;DHT22;38263;52.920;6.238;2022-09-03T13:50:09;25.10;95.40
52323;DHT22;38263;52.920;6.238;2022-09-03T13:53:04;24.90;95.20
52323;DHT22;38263;52.920;6.238;2022-09-03T13:55:41;25.00;94.30
52323;DHT22;38263;52.920;6.238;2022-09-03T14:03:42;25.40;95.00
52323;DHT22;38263;52.920;6.238;2022-09-03T14:09:13;25.10;94.70
52323;DHT22;38263;52.920;6.238;2022-09-03T14:14:59;25.30;93.90
52323;DHT22;38263;52.920;6.238;2022-09-03T14:17:52;25.40;94.70
52323;DHT22;38263;52.920;6.238;2022-09-03T14:23:09;25.20;94.10
52323;DHT22;38263;52.920;6.238;2022-09-03T14:25:54;25.20;94.90
52323;DHT22;38263;52.920;6.238;2022-09-03T14:28:39;25.30;94.00
52323;DHT22;38263;52.920;6.238;2022-09-03T14:31:30;25.10;94.90
52323;DHT22;38263;52.920;6.238;2022-09-03T14:36:48;25.40;94.40
52323;DHT22;38263;52.920;6.238;2022-09-03T14:39:32;25.20;94.80
52323;DHT22;38263;52.920;6.238;2022-09-03T14:48:12;25.20;94.40
52323;DHT22;38263;52.920;6.238;2022-09-03T14:53:30;25.50;93.40
52323;DHT22;38263;52.920;6.238;2022-09-03T15:01:28;25.30;94.70
52323;DHT22;38263;52.920;6.238;2022-09-03T15:04:26;25.40;94.60
52323;DHT22;38263;52.920;6.238;2022-09-03T15:12:37;25.20;94.20
52323;DHT22;38263;52.920;6.238;2022-09-03T15:30:18;25.70;94.00
52323;DHT22;38263;52.920;6.238;2022-09-03T15:32:49;25.90;94.30
52323;DHT22;38263;52.920;6.238;2022-09-03T15:36:17;25.90;94.30
52323;DHT22;38263;52.920;6.238;2022-09-03T15:43:49;27.20;94.50
52323;DHT22;38263;52.920;6.238;2022-09-03T15:52:05;26.00;94.00
52323;DHT22;38263;52.920;6.238;2022-09-03T15:54:57;26.00;93.50
52323;DHT22;38263;52.920;6.238;2022-09-03T16:00:18;25.90;94.10
52323;DHT22;38263;52.920;6.238;2022-09-03T16:02:50;25.80;94.40
52323;DHT22;38263;52.920;6.238;2022-09-03T16:11:16;25.90;93.70
52323;DHT22;38263;52.920;6.238;2022-09-03T16:16:28;25.60;93.70
52323;DHT22;38263;52.920;6.238;2022-09-03T16:21:59;25.70;93.90
52323;DHT22;38263;52.920;6.238;2022-09-03T16:28:13;25.70;93.60
52323;DHT22;38263;52.920;6.238;2022-09-03T16:38:38;25.50;94.90
52323;DHT22;38263;52.920;6.238;2022-09-03T16:44:06;25.30;94.30
52323;DHT22;38263;52.920;6.238;2022-09-03T16:46:39;25.40;94.20
52323;DHT22;38263;52.920;6.238;2022-09-03T16:49:23;25.50;94.60
52323;DHT22;38263;52.920;6.238;2022-09-03T16:55:10;25.10;94.80
52323;DHT22;38263;52.920;6.238;2022-09-03T17:00:32;24.90;95.30
52323;DHT22;38263;52.920;6.238;2022-09-03T17:14:22;24.40;95.60
52323;DHT22;38263;52.920;6.238;2022-09-03T17:17:09;24.60;95.20
52323;DHT22;38263;52.920;6.238;2022-09-03T17:19:56;24.60;96.00
52323;DHT22;38263;52.920;6.238;2022-09-03T17:22:44;24.40;95.60
52323;DHT22;38263;52.920;6.238;2022-09-03T17:25:35;24.40;95.50
52323;DHT22;38263;52.920;6.238;2022-09-03T17:30:57;24.20;95.70
52323;DHT22;38263;52.920;6.238;2022-09-03T17:33:30;24.00;96.80
52323;DHT22;38263;52.920;6.238;2022-09-03T17:47:06;23.70;96.00
52323;DHT22;38263;52.920;6.238;2022-09-03T17:49:46;23.90;96.50
52323;DHT22;38263;52.920;6.238;2022-09-03T17:55:36;23.70;96.50
52323;DHT22;38263;52.920;6.238;2022-09-03T17:58:27;23.50;96.60
52323;DHT22;38263;52.920;6.238;2022-09-03T18:01:06;23.40;96.70
52323;DHT22;38263;52.920;6.238;2022-09-03T18:03:50;23.20;96.50
52323;DHT22;38263;52.920;6.238;2022-09-03T18:06:32;23.20;96.70
52323;DHT22;38263;52.920;6.238;2022-09-03T18:14:25;23.00;97.60
52323;DHT22;38263;52.920;6.238;2022-09-03T18:19:49;23.90;98.10
52323;DHT22;38263;52.920;6.238;2022-09-03T18:25:49;22.60;97.40
52323;DHT22;38263;52.920;6.238;2022-09-03T18:28:42;22.40;98.00
52323;DHT22;38263;52.920;6.238;2022-09-03T18:31:28;22.60;98.30
52323;DHT22;38263;52.920;6.238;2022-09-03T18:34:12;22.50;97.60
52323;DHT22;38263;52.920;6.238;2022-09-03T18:36:58;22.50;97.70
52323;DHT22;38263;52.920;6.238;2022-09-03T18:39:44;22.20;98.30
52323;DHT22;38263;52.920;6.238;2022-09-03T18:45:37;22.00;97.80
52323;DHT22;38263;52.920;6.238;2022-09-03T18:51:43;22.20;98.20
52323;DHT22;38263;52.920;6.238;2022-09-03T18:54:48;21.80;98.90
52323;DHT22;38263;52.920;6.238;2022-09-03T19:07:08;21.60;98.70
52323;DHT22;38263;52.920;6.238;2022-09-03T19:10:26;21.30;98.70
52323;DHT22;38263;52.920;6.238;2022-09-03T19:13:24;21.50;99.20
52323;DHT22;38263;52.920;6.238;2022-09-03T19:22:39;20.90;99.60
52323;DHT22;38263;52.920;6.238;2022-09-03T19:25:26;21.00;99.90
52323;DHT22;38263;52.920;6.238;2022-09-03T19:28:14;20.70;99.90
52323;DHT22;38263;52.920;6.238;2022-09-03T19:34:02;21.00;99.90
52323;DHT22;38263;52.920;6.238;2022-09-03T19:37:03;21.00;99.90
52323;DHT22;38263;52.920;6.238;2022-09-03T19:53:00;20.60;99.90
52323;DHT22;38263;52.920;6.238;2022-09-03T19:55:57;20.30;99.90
52323;DHT22;38263;52.920;6.238;2022-09-03T19:58:49;20.20;99.90
52323;DHT22;38263;52.920;6.238;2022-09-03T20:01:36;20.10;99.90
52323;DHT22;38263;52.920;6.238;2022-09-03T20:04:32;20.30;99.90
52323;DHT22;38263;52.920;6.238;2022-09-03T20:07:18;20.00;99.90
52323;DHT22;38263;52.920;6.238;2022-09-03T20:10:03;20.10;99.90
52323;DHT22;38263;52.920;6.238;2022-09-03T20:15:24;19.90;99.90
52323;DHT22;38263;52.920;6.238;2022-09-03T20:17:55;19.80;99.90
52323;DHT22;38263;52.920;6.238;2022-09-03T20:23:35;19.70;99.90
52323;DHT22;38263;52.920;6.238;2022-09-03T20:29:22;19.90;99.90
52323;DHT22;38263;52.920;6.238;2022-09-03T20:34:45;19.70;99.90
52323;DHT22;38263;52.920;6.238;2022-09-03T20:40:10;19.70;99.90
52323;DHT22;38263;52.920;6.238;2022-09-03T20:45:36;19.40;99.90
52323;DHT22;38263;52.920;6.238;2022-09-03T20:51:05;19.60;99.90
52323;DHT22;38263;52.920;6.238;2022-09-03T20:54:36;19.50;99.90
52323;DHT22;38263;52.920;6.238;2022-09-03T20:57:02;19.40;99.90
52323;DHT22;38263;52.920;6.238;2022-09-03T21:00:16;19.50;99.90
52323;DHT22;38263;52.920;6.238;2022-09-03T21:08:53;19.40;99.90
52323;DHT22;38263;52.920;6.238;2022-09-03T21:12:11;19.10;99.90
52323;DHT22;38263;52.920;6.238;2022-09-03T21:25:00;19.00;99.90
52323;DHT22;38263;52.920;6.238;2022-09-03T21:27:36;18.80;99.90
52323;DHT22;38263;52.920;6.238;2022-09-03T21:30:06;19.00;99.90
52323;DHT22;38263;52.920;6.238;2022-09-03T21:32:53;19.00;99.90
52323;DHT22;38263;52.920;6.238;2022-09-03T21:35:30;19.10;99.90
52323;DHT22;38263;52.920;6.238;2022-09-03T21:38:10;19.10;99.90